Главная страница
METAR-TAF:

METAR-TAF

Аэропорты :

Гуам

Хагатна, Гуам, США

широта: 13-29N, долгота: 144-48E, высота над уровнем моря: 91 м

Текущие метеонаблюдения

Эта сводка был подготовлена 1 час и 0 минут назад, в 10:54 UTC
Ветер 7 Узел от восточно-северо-восточный
Температура 29°C
Влажность 84%
Давление 1014 hPa
Видимость: 16.1 км
ясное небо

METAR: PGUM 211054Z 07007KT 10SM CLR 29/26 A2995 RMK AO2 SLP134 T02890256

Время: 21:54 (11:54 UTC)

Прогноз

Эта сводка был подготовлена 20 минут назад, в 11:34 UTC
Прогноз действительный с 21-го 12 UTC до 22-го 18 UTC
Ветер 8 Узел от восточно-северо-восточный
Видимость: 10 км
небольшая облачность на высоте 2000 фута
Отдельные облака на высоте 5000 фута
ливни в окрестностях

TAF: PGUM 211134Z 2112/2218 07008KT P6SM VCSH FEW020 SCT050

Метеонаблюдения и прогнозы для более 4000 аэропортов (сводки METAR и TAF).

Имеющиеся станции представлены на карте желтыми и красными точками.

Чтобы увидеть название станции, наведите на нее мышь.

Затем щелкните, чтобы увидеть метеонаблюдения и метеопрогнозы.

Управление картой: чтобы увеличить масштаб, щелкните зеленые кнопки с черным крестиком; чтобы уменьшить масштаб, щелкните зеленую кнопку с тире; для просмотра соседних карт щелкайте зеленые стрелки.


METAR-TAF: